sensor_id;sensor_type;location;lat;lon;timestamp;temperature;humidity
25250;DHT22;13201;51.148;13.738;2023-05-10T00:01:05;14.00;99.80
25250;DHT22;13201;51.148;13.738;2023-05-10T00:03:31;14.10;99.80
25250;DHT22;13201;51.148;13.738;2023-05-10T00:05:56;14.10;99.80
25250;DHT22;13201;51.148;13.738;2023-05-10T00:08:22;14.00;99.90
25250;DHT22;13201;51.148;13.738;2023-05-10T00:10:48;14.10;99.90
25250;DHT22;13201;51.148;13.738;2023-05-10T00:13:14;14.10;99.90
25250;DHT22;13201;51.148;13.738;2023-05-10T00:15:40;14.00;99.90
25250;DHT22;13201;51.148;13.738;2023-05-10T00:18:05;14.00;99.90
25250;DHT22;13201;51.148;13.738;2023-05-10T00:20:31;14.00;99.90
25250;DHT22;13201;51.148;13.738;2023-05-10T00:22:57;14.00;99.90
25250;DHT22;13201;51.148;13.738;2023-05-10T00:25:22;13.90;99.90
25250;DHT22;13201;51.148;13.738;2023-05-10T00:27:48;13.90;99.90
25250;DHT22;13201;51.148;13.738;2023-05-10T00:30:15;14.00;99.90
25250;DHT22;13201;51.148;13.738;2023-05-10T00:32:40;13.80;99.90
25250;DHT22;13201;51.148;13.738;2023-05-10T00:35:06;13.80;99.90
25250;DHT22;13201;51.148;13.738;2023-05-10T00:37:32;13.90;99.90
25250;DHT22;13201;51.148;13.738;2023-05-10T00:39:58;13.90;99.90
25250;DHT22;13201;51.148;13.738;2023-05-10T00:42:24;13.80;99.90
25250;DHT22;13201;51.148;13.738;2023-05-10T00:44:49;13.80;99.90
25250;DHT22;13201;51.148;13.738;2023-05-10T00:47:16;13.70;99.90
25250;DHT22;13201;51.148;13.738;2023-05-10T00:49:42;13.60;99.90
25250;DHT22;13201;51.148;13.738;2023-05-10T00:52:09;13.60;99.90
25250;DHT22;13201;51.148;13.738;2023-05-10T00:54:35;13.70;99.90
25250;DHT22;13201;51.148;13.738;2023-05-10T00:57:01;13.70;99.90
25250;DHT22;13201;51.148;13.738;2023-05-10T00:59:26;13.70;99.90
25250;DHT22;13201;51.148;13.738;2023-05-10T01:01:53;13.70;99.90
25250;DHT22;13201;51.148;13.738;2023-05-10T01:04:19;13.50;99.90
25250;DHT22;13201;51.148;13.738;2023-05-10T01:33:23;12.30;99.90
25250;DHT22;13201;51.148;13.738;2023-05-10T01:38:56;12.50;99.90
25250;DHT22;13201;51.148;13.738;2023-05-10T01:41:57;12.60;99.90
25250;DHT22;13201;51.148;13.738;2023-05-10T01:47:17;12.70;99.90
25250;DHT22;13201;51.148;13.738;2023-05-10T01:49:51;12.70;99.90
25250;DHT22;13201;51.148;13.738;2023-05-10T01:52:26;12.80;99.90
25250;DHT22;13201;51.148;13.738;2023-05-10T01:55:04;12.80;99.90
25250;DHT22;13201;51.148;13.738;2023-05-10T01:57:35;12.90;99.90
25250;DHT22;13201;51.148;13.738;2023-05-10T02:00:03;12.80;99.90
25250;DHT22;13201;51.148;13.738;2023-05-10T02:02:31;12.80;99.90
25250;DHT22;13201;51.148;13.738;2023-05-10T02:04:59;12.70;99.90
25250;DHT22;13201;51.148;13.738;2023-05-10T02:07:27;12.70;99.90
25250;DHT22;13201;51.148;13.738;2023-05-10T02:09:53;12.70;99.90
25250;DHT22;13201;51.148;13.738;2023-05-10T02:12:21;12.70;99.90
25250;DHT22;13201;51.148;13.738;2023-05-10T02:14:47;12.60;99.90
25250;DHT22;13201;51.148;13.738;2023-05-10T02:17:14;12.60;99.90
25250;DHT22;13201;51.148;13.738;2023-05-10T02:19:41;12.60;99.90
25250;DHT22;13201;51.148;13.738;2023-05-10T02:22:09;12.60;99.90
25250;DHT22;13201;51.148;13.738;2023-05-10T02:24:36;12.60;99.90
25250;DHT22;13201;51.148;13.738;2023-05-10T02:27:02;12.70;99.90
25250;DHT22;13201;51.148;13.738;2023-05-10T02:29:29;12.60;99.90
25250;DHT22;13201;51.148;13.738;2023-05-10T02:31:55;12.50;99.90
25250;DHT22;13201;51.148;13.738;2023-05-10T02:34:22;12.50;99.90
25250;DHT22;13201;51.148;13.738;2023-05-10T02:36:50;12.50;99.90
25250;DHT22;13201;51.148;13.738;2023-05-10T02:39:19;12.50;99.90
25250;DHT22;13201;51.148;13.738;2023-05-10T02:41:45;12.50;99.90
25250;DHT22;13201;51.148;13.738;2023-05-10T02:44:14;12.40;99.90
25250;DHT22;13201;51.148;13.738;2023-05-10T02:46:40;12.40;99.90
25250;DHT22;13201;51.148;13.738;2023-05-10T02:49:07;12.20;99.90
25250;DHT22;13201;51.148;13.738;2023-05-10T02:51:35;12.30;99.90
25250;DHT22;13201;51.148;13.738;2023-05-10T02:54:10;12.30;99.90
25250;DHT22;13201;51.148;13.738;2023-05-10T02:56:42;12.30;99.90
25250;DHT22;13201;51.148;13.738;2023-05-10T02:59:08;12.30;99.90
25250;DHT22;13201;51.148;13.738;2023-05-10T03:01:34;12.30;99.90
25250;DHT22;13201;51.148;13.738;2023-05-10T03:04:00;12.30;99.90
25250;DHT22;13201;51.148;13.738;2023-05-10T03:06:25;12.10;99.90
25250;DHT22;13201;51.148;13.738;2023-05-10T03:08:51;12.10;99.90
25250;DHT22;13201;51.148;13.738;2023-05-10T03:14:12;12.20;99.90
25250;DHT22;13201;51.148;13.738;2023-05-10T03:16:52;12.20;99.90
25250;DHT22;13201;51.148;13.738;2023-05-10T03:19:26;12.20;99.90
25250;DHT22;13201;51.148;13.738;2023-05-10T03:21:53;12.30;99.90
25250;DHT22;13201;51.148;13.738;2023-05-10T03:24:23;12.20;99.90
25250;DHT22;13201;51.148;13.738;2023-05-10T03:26:54;12.20;99.90
25250;DHT22;13201;51.148;13.738;2023-05-10T03:29:22;12.30;99.90
25250;DHT22;13201;51.148;13.738;2023-05-10T03:31:48;12.20;99.90
25250;DHT22;13201;51.148;13.738;2023-05-10T03:34:14;12.20;99.90
25250;DHT22;13201;51.148;13.738;2023-05-10T03:36:39;12.20;99.90
25250;DHT22;13201;51.148;13.738;2023-05-10T03:39:05;12.20;99.90
25250;DHT22;13201;51.148;13.738;2023-05-10T03:41:31;12.20;99.90
25250;DHT22;13201;51.148;13.738;2023-05-10T03:43:56;12.10;99.90
25250;DHT22;13201;51.148;13.738;2023-05-10T03:46:22;12.10;99.90
25250;DHT22;13201;51.148;13.738;2023-05-10T03:48:48;12.10;99.90
25250;DHT22;13201;51.148;13.738;2023-05-10T03:51:13;12.20;99.90
25250;DHT22;13201;51.148;13.738;2023-05-10T03:53:39;12.20;99.90
25250;DHT22;13201;51.148;13.738;2023-05-10T03:56:04;12.20;99.90
25250;DHT22;13201;51.148;13.738;2023-05-10T03:58:30;12.10;99.90
25250;DHT22;13201;51.148;13.738;2023-05-10T04:00:56;12.10;99.90
25250;DHT22;13201;51.148;13.738;2023-05-10T04:03:21;12.20;99.90
25250;DHT22;13201;51.148;13.738;2023-05-10T04:05:48;12.20;99.90
25250;DHT22;13201;51.148;13.738;2023-05-10T04:08:14;12.20;99.90
25250;DHT22;13201;51.148;13.738;2023-05-10T04:10:41;12.30;99.90
25250;DHT22;13201;51.148;13.738;2023-05-10T04:13:07;12.20;99.90
25250;DHT22;13201;51.148;13.738;2023-05-10T04:15:33;12.30;99.90
25250;DHT22;13201;51.148;13.738;2023-05-10T04:17:58;12.40;99.90
25250;DHT22;13201;51.148;13.738;2023-05-10T04:20:24;12.40;99.90
25250;DHT22;13201;51.148;13.738;2023-05-10T04:22:50;12.40;99.90
25250;DHT22;13201;51.148;13.738;2023-05-10T04:25:15;12.50;99.90
25250;DHT22;13201;51.148;13.738;2023-05-10T04:27:41;12.40;99.90
25250;DHT22;13201;51.148;13.738;2023-05-10T04:30:07;12.40;99.90
25250;DHT22;13201;51.148;13.738;2023-05-10T04:32:33;12.50;99.90
25250;DHT22;13201;51.148;13.738;2023-05-10T04:34:59;12.50;99.90
25250;DHT22;13201;51.148;13.738;2023-05-10T04:37:24;12.50;99.90
25250;DHT22;13201;51.148;13.738;2023-05-10T04:39:50;12.50;99.90
25250;DHT22;13201;51.148;13.738;2023-05-10T04:42:16;12.60;99.90
25250;DHT22;13201;51.148;13.738;2023-05-10T04:44:41;12.50;99.90
25250;DHT22;13201;51.148;13.738;2023-05-10T04:47:07;12.50;99.90
25250;DHT22;13201;51.148;13.738;2023-05-10T04:49:33;12.60;99.90
25250;DHT22;13201;51.148;13.738;2023-05-10T04:51:59;12.70;99.90
25250;DHT22;13201;51.148;13.738;2023-05-10T04:54:24;12.60;99.90
25250;DHT22;13201;51.148;13.738;2023-05-10T04:56:50;12.70;99.90
25250;DHT22;13201;51.148;13.738;2023-05-10T04:59:16;12.70;99.90
25250;DHT22;13201;51.148;13.738;2023-05-10T05:01:42;12.80;99.90
25250;DHT22;13201;51.148;13.738;2023-05-10T05:04:08;12.80;99.90
25250;DHT22;13201;51.148;13.738;2023-05-10T05:06:34;12.90;99.90
25250;DHT22;13201;51.148;13.738;2023-05-10T05:08:59;12.90;99.90
25250;DHT22;13201;51.148;13.738;2023-05-10T05:11:25;12.90;99.90
25250;DHT22;13201;51.148;13.738;2023-05-10T05:13:51;13.00;99.90
25250;DHT22;13201;51.148;13.738;2023-05-10T05:16:17;13.10;99.90
25250;DHT22;13201;51.148;13.738;2023-05-10T05:18:42;13.10;99.90
25250;DHT22;13201;51.148;13.738;2023-05-10T05:21:18;13.20;99.90
25250;DHT22;13201;51.148;13.738;2023-05-10T05:23:44;13.30;99.90
25250;DHT22;13201;51.148;13.738;2023-05-10T05:26:10;13.30;99.90
25250;DHT22;13201;51.148;13.738;2023-05-10T05:28:36;13.40;99.90
25250;DHT22;13201;51.148;13.738;2023-05-10T05:31:06;13.40;99.90
25250;DHT22;13201;51.148;13.738;2023-05-10T05:33:33;13.50;99.90
25250;DHT22;13201;51.148;13.738;2023-05-10T05:36:03;13.50;99.90
25250;DHT22;13201;51.148;13.738;2023-05-10T05:38:28;13.70;99.90
25250;DHT22;13201;51.148;13.738;2023-05-10T05:40:54;13.70;99.90
25250;DHT22;13201;51.148;13.738;2023-05-10T05:43:20;13.80;99.90
25250;DHT22;13201;51.148;13.738;2023-05-10T05:45:46;13.90;99.90
25250;DHT22;13201;51.148;13.738;2023-05-10T05:48:11;13.90;99.90
25250;DHT22;13201;51.148;13.738;2023-05-10T05:50:37;14.00;99.90
25250;DHT22;13201;51.148;13.738;2023-05-10T05:53:03;14.00;99.90
25250;DHT22;13201;51.148;13.738;2023-05-10T05:55:28;14.10;99.90
25250;DHT22;13201;51.148;13.738;2023-05-10T05:57:55;14.20;99.90
25250;DHT22;13201;51.148;13.738;2023-05-10T06:00:20;14.30;99.90
25250;DHT22;13201;51.148;13.738;2023-05-10T06:02:47;14.40;99.90
25250;DHT22;13201;51.148;13.738;2023-05-10T06:05:13;14.50;99.90
25250;DHT22;13201;51.148;13.738;2023-05-10T06:07:39;14.60;99.90
25250;DHT22;13201;51.148;13.738;2023-05-10T06:10:08;14.70;99.90
25250;DHT22;13201;51.148;13.738;2023-05-10T06:12:34;14.60;99.90
25250;DHT22;13201;51.148;13.738;2023-05-10T06:15:00;14.70;99.90
25250;DHT22;13201;51.148;13.738;2023-05-10T06:17:25;14.80;99.90
25250;DHT22;13201;51.148;13.738;2023-05-10T06:19:51;14.90;99.90
25250;DHT22;13201;51.148;13.738;2023-05-10T06:22:17;14.90;99.90
25250;DHT22;13201;51.148;13.738;2023-05-10T06:24:43;15.00;99.90
25250;DHT22;13201;51.148;13.738;2023-05-10T06:27:08;15.10;99.90
25250;DHT22;13201;51.148;13.738;2023-05-10T06:29:34;15.20;99.90
25250;DHT22;13201;51.148;13.738;2023-05-10T06:32:00;15.10;99.90
25250;DHT22;13201;51.148;13.738;2023-05-10T06:34:26;15.10;99.90
25250;DHT22;13201;51.148;13.738;2023-05-10T06:36:51;15.10;99.90
25250;DHT22;13201;51.148;13.738;2023-05-10T06:39:17;15.10;99.90
25250;DHT22;13201;51.148;13.738;2023-05-10T06:41:42;15.30;99.90
25250;DHT22;13201;51.148;13.738;2023-05-10T06:44:08;15.40;99.90
25250;DHT22;13201;51.148;13.738;2023-05-10T06:46:34;15.50;99.90
25250;DHT22;13201;51.148;13.738;2023-05-10T06:49:00;15.60;99.90
25250;DHT22;13201;51.148;13.738;2023-05-10T06:51:26;15.70;99.90
25250;DHT22;13201;51.148;13.738;2023-05-10T06:53:51;15.60;99.90
25250;DHT22;13201;51.148;13.738;2023-05-10T06:56:17;15.70;99.90
25250;DHT22;13201;51.148;13.738;2023-05-10T06:58:43;15.70;99.90
25250;DHT22;13201;51.148;13.738;2023-05-10T07:01:08;15.80;99.90
25250;DHT22;13201;51.148;13.738;2023-05-10T07:03:34;15.60;99.90
25250;DHT22;13201;51.148;13.738;2023-05-10T07:06:01;15.90;99.90
25250;DHT22;13201;51.148;13.738;2023-05-10T07:08:29;16.00;99.90
25250;DHT22;13201;51.148;13.738;2023-05-10T07:11:02;16.00;99.90
25250;DHT22;13201;51.148;13.738;2023-05-10T07:13:30;16.10;99.90
25250;DHT22;13201;51.148;13.738;2023-05-10T07:15:56;16.20;99.90
25250;DHT22;13201;51.148;13.738;2023-05-10T07:18:21;16.30;99.90
25250;DHT22;13201;51.148;13.738;2023-05-10T07:20:47;16.30;99.90
25250;DHT22;13201;51.148;13.738;2023-05-10T07:23:12;16.40;99.90
25250;DHT22;13201;51.148;13.738;2023-05-10T07:25:38;16.40;99.90
25250;DHT22;13201;51.148;13.738;2023-05-10T07:28:04;16.40;99.90
25250;DHT22;13201;51.148;13.738;2023-05-10T07:30:29;16.60;99.90
25250;DHT22;13201;51.148;13.738;2023-05-10T07:32:56;16.70;99.90
25250;DHT22;13201;51.148;13.738;2023-05-10T07:35:22;16.60;99.90
25250;DHT22;13201;51.148;13.738;2023-05-10T07:37:47;16.80;99.90
25250;DHT22;13201;51.148;13.738;2023-05-10T07:40:13;16.80;99.90
25250;DHT22;13201;51.148;13.738;2023-05-10T07:42:39;16.80;99.90
25250;DHT22;13201;51.148;13.738;2023-05-10T07:45:05;16.90;99.90
25250;DHT22;13201;51.148;13.738;2023-05-10T07:47:31;17.10;99.90
25250;DHT22;13201;51.148;13.738;2023-05-10T07:49:56;17.10;99.90
25250;DHT22;13201;51.148;13.738;2023-05-10T07:52:22;17.10;99.90
25250;DHT22;13201;51.148;13.738;2023-05-10T07:54:47;17.20;99.90
25250;DHT22;13201;51.148;13.738;2023-05-10T07:57:13;17.50;99.90
25250;DHT22;13201;51.148;13.738;2023-05-10T07:59:40;17.50;99.90
25250;DHT22;13201;51.148;13.738;2023-05-10T08:02:06;17.60;99.90
25250;DHT22;13201;51.148;13.738;2023-05-10T08:04:32;17.70;99.90
25250;DHT22;13201;51.148;13.738;2023-05-10T08:06:58;17.80;99.90
25250;DHT22;13201;51.148;13.738;2023-05-10T08:09:23;17.90;99.90
25250;DHT22;13201;51.148;13.738;2023-05-10T08:11:49;17.70;99.90
25250;DHT22;13201;51.148;13.738;2023-05-10T08:14:16;17.80;99.90
25250;DHT22;13201;51.148;13.738;2023-05-10T08:16:42;17.90;99.90
25250;DHT22;13201;51.148;13.738;2023-05-10T08:19:07;18.10;99.90
25250;DHT22;13201;51.148;13.738;2023-05-10T08:21:33;18.20;99.90
25250;DHT22;13201;51.148;13.738;2023-05-10T08:23:59;18.30;99.90
25250;DHT22;13201;51.148;13.738;2023-05-10T08:26:25;18.30;99.90
25250;DHT22;13201;51.148;13.738;2023-05-10T08:28:51;18.30;99.90
25250;DHT22;13201;51.148;13.738;2023-05-10T08:31:16;18.40;99.90
25250;DHT22;13201;51.148;13.738;2023-05-10T08:33:43;18.70;99.90
25250;DHT22;13201;51.148;13.738;2023-05-10T08:36:09;18.70;99.90
25250;DHT22;13201;51.148;13.738;2023-05-10T08:38:34;18.70;99.90
25250;DHT22;13201;51.148;13.738;2023-05-10T08:41:02;18.70;99.90
25250;DHT22;13201;51.148;13.738;2023-05-10T08:43:28;18.90;99.90
25250;DHT22;13201;51.148;13.738;2023-05-10T08:45:55;19.00;99.90
25250;DHT22;13201;51.148;13.738;2023-05-10T08:48:24;19.00;99.90
25250;DHT22;13201;51.148;13.738;2023-05-10T08:50:53;19.20;99.90
25250;DHT22;13201;51.148;13.738;2023-05-10T08:53:24;19.00;99.60
25250;DHT22;13201;51.148;13.738;2023-05-10T08:55:52;19.30;99.90
25250;DHT22;13201;51.148;13.738;2023-05-10T08:58:19;19.50;99.90
25250;DHT22;13201;51.148;13.738;2023-05-10T09:00:45;19.50;99.90
25250;DHT22;13201;51.148;13.738;2023-05-10T09:03:11;19.70;99.90
25250;DHT22;13201;51.148;13.738;2023-05-10T09:05:37;19.50;99.40
25250;DHT22;13201;51.148;13.738;2023-05-10T09:08:03;19.60;99.50
25250;DHT22;13201;51.148;13.738;2023-05-10T09:10:29;19.70;99.00
25250;DHT22;13201;51.148;13.738;2023-05-10T09:12:56;19.80;99.90
25250;DHT22;13201;51.148;13.738;2023-05-10T09:15:23;19.40;99.00
25250;DHT22;13201;51.148;13.738;2023-05-10T09:17:49;19.70;99.00
25250;DHT22;13201;51.148;13.738;2023-05-10T09:20:15;19.90;99.10
25250;DHT22;13201;51.148;13.738;2023-05-10T09:22:42;19.90;99.40
25250;DHT22;13201;51.148;13.738;2023-05-10T09:25:10;20.10;98.90
25250;DHT22;13201;51.148;13.738;2023-05-10T09:27:38;20.00;99.00
25250;DHT22;13201;51.148;13.738;2023-05-10T09:30:05;20.20;99.10
25250;DHT22;13201;51.148;13.738;2023-05-10T09:32:45;20.50;99.00
25250;DHT22;13201;51.148;13.738;2023-05-10T09:35:16;20.70;99.20
25250;DHT22;13201;51.148;13.738;2023-05-10T09:37:45;20.30;98.40
25250;DHT22;13201;51.148;13.738;2023-05-10T09:40:14;20.50;98.10
25250;DHT22;13201;51.148;13.738;2023-05-10T09:42:51;20.50;97.60
25250;DHT22;13201;51.148;13.738;2023-05-10T09:45:17;20.80;97.90
25250;DHT22;13201;51.148;13.738;2023-05-10T09:47:43;21.10;97.50
25250;DHT22;13201;51.148;13.738;2023-05-10T09:50:09;21.20;98.00
25250;DHT22;13201;51.148;13.738;2023-05-10T09:52:55;21.30;97.30
25250;DHT22;13201;51.148;13.738;2023-05-10T09:55:26;21.30;97.30
25250;DHT22;13201;51.148;13.738;2023-05-10T09:58:01;21.20;97.90
25250;DHT22;13201;51.148;13.738;2023-05-10T10:00:27;21.10;96.60
25250;DHT22;13201;51.148;13.738;2023-05-10T10:02:58;21.50;96.90
25250;DHT22;13201;51.148;13.738;2023-05-10T10:05:35;21.60;96.80
25250;DHT22;13201;51.148;13.738;2023-05-10T10:08:03;21.90;96.30
25250;DHT22;13201;51.148;13.738;2023-05-10T10:10:29;21.60;96.40
25250;DHT22;13201;51.148;13.738;2023-05-10T10:12:56;21.80;96.50
25250;DHT22;13201;51.148;13.738;2023-05-10T10:15:22;22.30;96.50
25250;DHT22;13201;51.148;13.738;2023-05-10T10:17:49;22.20;96.20
25250;DHT22;13201;51.148;13.738;2023-05-10T10:20:16;22.00;95.80
25250;DHT22;13201;51.148;13.738;2023-05-10T10:22:42;22.00;95.80
25250;DHT22;13201;51.148;13.738;2023-05-10T10:25:10;22.10;96.30
25250;DHT22;13201;51.148;13.738;2023-05-10T10:35:29;22.90;95.80
25250;DHT22;13201;51.148;13.738;2023-05-10T10:37:55;23.00;96.00
25250;DHT22;13201;51.148;13.738;2023-05-10T10:40:28;23.20;95.30
25250;DHT22;13201;51.148;13.738;2023-05-10T10:42:55;23.20;94.20
25250;DHT22;13201;51.148;13.738;2023-05-10T10:45:21;23.40;95.20
25250;DHT22;13201;51.148;13.738;2023-05-10T10:47:47;23.30;94.60
25250;DHT22;13201;51.148;13.738;2023-05-10T10:50:13;23.60;94.70
25250;DHT22;13201;51.148;13.738;2023-05-10T10:52:42;23.70;93.70
25250;DHT22;13201;51.148;13.738;2023-05-10T10:55:10;23.50;93.70
25250;DHT22;13201;51.148;13.738;2023-05-10T10:57:52;23.70;94.00
25250;DHT22;13201;51.148;13.738;2023-05-10T11:03:11;23.70;94.30
25250;DHT22;13201;51.148;13.738;2023-05-10T11:05:45;23.10;93.10
25250;DHT22;13201;51.148;13.738;2023-05-10T11:08:39;23.30;94.10
25250;DHT22;13201;51.148;13.738;2023-05-10T11:11:07;23.70;93.70
25250;DHT22;13201;51.148;13.738;2023-05-10T11:13:41;23.50;93.10
25250;DHT22;13201;51.148;13.738;2023-05-10T11:18:37;23.20;93.50
25250;DHT22;13201;51.148;13.738;2023-05-10T11:21:03;23.30;93.60
25250;DHT22;13201;51.148;13.738;2023-05-10T11:26:07;23.80;93.20
25250;DHT22;13201;51.148;13.738;2023-05-10T11:28:47;23.80;92.50
25250;DHT22;13201;51.148;13.738;2023-05-10T11:31:19;23.90;92.70
25250;DHT22;13201;51.148;13.738;2023-05-10T11:33:50;24.20;92.70
25250;DHT22;13201;51.148;13.738;2023-05-10T11:36:27;23.90;91.80
25250;DHT22;13201;51.148;13.738;2023-05-10T11:38:53;24.30;92.50
25250;DHT22;13201;51.148;13.738;2023-05-10T11:41:20;24.20;92.00
25250;DHT22;13201;51.148;13.738;2023-05-10T11:43:53;24.10;92.00
25250;DHT22;13201;51.148;13.738;2023-05-10T11:46:21;24.00;91.90
25250;DHT22;13201;51.148;13.738;2023-05-10T11:48:49;24.40;92.40
25250;DHT22;13201;51.148;13.738;2023-05-10T11:51:22;24.60;91.50
25250;DHT22;13201;51.148;13.738;2023-05-10T11:53:50;24.10;91.50
25250;DHT22;13201;51.148;13.738;2023-05-10T11:56:16;24.40;92.50
25250;DHT22;13201;51.148;13.738;2023-05-10T11:58:42;24.70;91.80
25250;DHT22;13201;51.148;13.738;2023-05-10T12:01:08;24.90;91.80
25250;DHT22;13201;51.148;13.738;2023-05-10T12:03:35;24.90;91.90
25250;DHT22;13201;51.148;13.738;2023-05-10T12:06:02;24.90;91.60
25250;DHT22;13201;51.148;13.738;2023-05-10T12:08:29;24.70;90.90
25250;DHT22;13201;51.148;13.738;2023-05-10T12:11:06;24.30;91.50
25250;DHT22;13201;51.148;13.738;2023-05-10T12:13:32;24.80;92.10
25250;DHT22;13201;51.148;13.738;2023-05-10T12:15:58;24.90;91.20
25250;DHT22;13201;51.148;13.738;2023-05-10T12:18:24;24.90;91.00
25250;DHT22;13201;51.148;13.738;2023-05-10T12:20:53;24.10;91.00
25250;DHT22;13201;51.148;13.738;2023-05-10T12:23:20;24.40;91.20
25250;DHT22;13201;51.148;13.738;2023-05-10T12:25:45;24.40;90.70
25250;DHT22;13201;51.148;13.738;2023-05-10T12:28:11;24.60;91.30
25250;DHT22;13201;51.148;13.738;2023-05-10T12:30:38;24.60;89.70
25250;DHT22;13201;51.148;13.738;2023-05-10T12:33:10;25.00;89.60
25250;DHT22;13201;51.148;13.738;2023-05-10T12:35:52;25.20;90.80
25250;DHT22;13201;51.148;13.738;2023-05-10T12:38:32;25.00;90.40
25250;DHT22;13201;51.148;13.738;2023-05-10T12:40:59;25.50;90.10
25250;DHT22;13201;51.148;13.738;2023-05-10T12:43:25;25.70;90.40
25250;DHT22;13201;51.148;13.738;2023-05-10T12:45:51;24.80;89.20
25250;DHT22;13201;51.148;13.738;2023-05-10T12:48:16;25.30;90.00
25250;DHT22;13201;51.148;13.738;2023-05-10T12:50:42;25.20;88.20
25250;DHT22;13201;51.148;13.738;2023-05-10T12:53:08;25.40;88.90
25250;DHT22;13201;51.148;13.738;2023-05-10T12:55:34;25.50;88.90
25250;DHT22;13201;51.148;13.738;2023-05-10T12:57:59;25.50;88.50
25250;DHT22;13201;51.148;13.738;2023-05-10T13:00:25;25.10;87.90
25250;DHT22;13201;51.148;13.738;2023-05-10T13:02:51;25.20;87.70
25250;DHT22;13201;51.148;13.738;2023-05-10T13:05:17;24.90;88.40
25250;DHT22;13201;51.148;13.738;2023-05-10T13:07:43;25.10;87.90
25250;DHT22;13201;51.148;13.738;2023-05-10T13:10:09;24.30;88.00
25250;DHT22;13201;51.148;13.738;2023-05-10T13:12:35;24.60;88.60
25250;DHT22;13201;51.148;13.738;2023-05-10T13:15:01;24.70;87.90
25250;DHT22;13201;51.148;13.738;2023-05-10T13:17:28;24.70;89.10
25250;DHT22;13201;51.148;13.738;2023-05-10T13:19:53;24.90;88.70
25250;DHT22;13201;51.148;13.738;2023-05-10T13:22:19;24.50;87.80
25250;DHT22;13201;51.148;13.738;2023-05-10T13:24:45;24.20;86.60
25250;DHT22;13201;51.148;13.738;2023-05-10T13:27:10;24.50;85.20
25250;DHT22;13201;51.148;13.738;2023-05-10T13:29:36;24.40;86.90
25250;DHT22;13201;51.148;13.738;2023-05-10T13:32:02;24.20;86.40
25250;DHT22;13201;51.148;13.738;2023-05-10T13:34:28;24.50;86.50
25250;DHT22;13201;51.148;13.738;2023-05-10T13:36:53;24.30;87.30
25250;DHT22;13201;51.148;13.738;2023-05-10T13:39:21;24.70;88.30
25250;DHT22;13201;51.148;13.738;2023-05-10T13:41:46;25.30;86.20
25250;DHT22;13201;51.148;13.738;2023-05-10T13:44:13;24.70;87.50
25250;DHT22;13201;51.148;13.738;2023-05-10T13:46:40;24.00;90.40
25250;DHT22;13201;51.148;13.738;2023-05-10T13:49:08;23.20;94.50
25250;DHT22;13201;51.148;13.738;2023-05-10T13:51:34;22.80;95.70
25250;DHT22;13201;51.148;13.738;2023-05-10T13:54:00;23.10;96.00
25250;DHT22;13201;51.148;13.738;2023-05-10T13:56:26;22.80;95.50
25250;DHT22;13201;51.148;13.738;2023-05-10T13:58:52;22.80;95.40
25250;DHT22;13201;51.148;13.738;2023-05-10T14:01:17;22.90;95.90
25250;DHT22;13201;51.148;13.738;2023-05-10T14:03:43;23.00;96.20
25250;DHT22;13201;51.148;13.738;2023-05-10T14:06:09;23.30;96.80
25250;DHT22;13201;51.148;13.738;2023-05-10T14:08:35;23.30;96.90
25250;DHT22;13201;51.148;13.738;2023-05-10T14:11:01;23.30;97.00
25250;DHT22;13201;51.148;13.738;2023-05-10T14:13:26;23.20;96.00
25250;DHT22;13201;51.148;13.738;2023-05-10T14:15:54;23.20;96.70
25250;DHT22;13201;51.148;13.738;2023-05-10T14:18:19;23.40;97.50
25250;DHT22;13201;51.148;13.738;2023-05-10T14:20:45;23.20;96.90
25250;DHT22;13201;51.148;13.738;2023-05-10T14:23:11;22.80;96.50
25250;DHT22;13201;51.148;13.738;2023-05-10T14:25:39;23.20;96.90
25250;DHT22;13201;51.148;13.738;2023-05-10T14:28:05;23.30;97.40
25250;DHT22;13201;51.148;13.738;2023-05-10T14:30:31;23.60;97.50
25250;DHT22;13201;51.148;13.738;2023-05-10T14:32:57;23.70;97.00
25250;DHT22;13201;51.148;13.738;2023-05-10T14:35:24;23.80;96.20
25250;DHT22;13201;51.148;13.738;2023-05-10T14:37:49;24.30;95.50
25250;DHT22;13201;51.148;13.738;2023-05-10T14:40:15;24.10;97.40
25250;DHT22;13201;51.148;13.738;2023-05-10T14:42:42;23.50;97.60
25250;DHT22;13201;51.148;13.738;2023-05-10T14:45:09;23.20;97.70
25250;DHT22;13201;51.148;13.738;2023-05-10T14:47:36;23.50;96.80
25250;DHT22;13201;51.148;13.738;2023-05-10T14:50:02;23.80;96.90
25250;DHT22;13201;51.148;13.738;2023-05-10T14:52:27;23.20;97.10
25250;DHT22;13201;51.148;13.738;2023-05-10T14:54:53;23.50;97.00
25250;DHT22;13201;51.148;13.738;2023-05-10T14:57:19;22.90;97.50
25250;DHT22;13201;51.148;13.738;2023-05-10T14:59:44;23.00;97.30
25250;DHT22;13201;51.148;13.738;2023-05-10T15:02:10;23.40;97.00
25250;DHT22;13201;51.148;13.738;2023-05-10T15:04:36;23.10;96.80
25250;DHT22;13201;51.148;13.738;2023-05-10T15:07:02;22.50;97.40
25250;DHT22;13201;51.148;13.738;2023-05-10T15:09:28;22.60;98.10
25250;DHT22;13201;51.148;13.738;2023-05-10T15:11:54;22.60;98.70
25250;DHT22;13201;51.148;13.738;2023-05-10T15:14:20;22.70;98.80
25250;DHT22;13201;51.148;13.738;2023-05-10T15:16:45;22.80;99.80
25250;DHT22;13201;51.148;13.738;2023-05-10T15:19:12;23.00;99.80
25250;DHT22;13201;51.148;13.738;2023-05-10T15:21:37;22.80;99.90
25250;DHT22;13201;51.148;13.738;2023-05-10T15:24:07;22.50;99.50
25250;DHT22;13201;51.148;13.738;2023-05-10T15:26:33;22.30;99.90
25250;DHT22;13201;51.148;13.738;2023-05-10T15:28:59;22.30;99.90
25250;DHT22;13201;51.148;13.738;2023-05-10T15:31:25;22.50;99.90
25250;DHT22;13201;51.148;13.738;2023-05-10T15:33:50;22.20;99.50
25250;DHT22;13201;51.148;13.738;2023-05-10T15:36:16;22.10;99.90
25250;DHT22;13201;51.148;13.738;2023-05-10T15:38:43;22.10;99.90
25250;DHT22;13201;51.148;13.738;2023-05-10T15:41:09;22.00;99.90
25250;DHT22;13201;51.148;13.738;2023-05-10T15:43:35;22.20;99.90
25250;DHT22;13201;51.148;13.738;2023-05-10T15:46:01;22.10;99.90
25250;DHT22;13201;51.148;13.738;2023-05-10T15:48:27;22.00;99.90
25250;DHT22;13201;51.148;13.738;2023-05-10T15:50:52;22.20;99.90
25250;DHT22;13201;51.148;13.738;2023-05-10T15:53:18;22.00;99.90
25250;DHT22;13201;51.148;13.738;2023-05-10T15:55:44;21.80;99.90
25250;DHT22;13201;51.148;13.738;2023-05-10T15:58:09;22.10;99.90
25250;DHT22;13201;51.148;13.738;2023-05-10T16:00:35;22.10;99.90
25250;DHT22;13201;51.148;13.738;2023-05-10T16:03:01;21.60;99.90
25250;DHT22;13201;51.148;13.738;2023-05-10T16:05:27;21.70;99.90